Hyundai Tacoma — V7DB9 — position and weather

sailwx.info

Track history (hours):
 
Tides and Currents Weather Stations Pressure Air Temp Water Temp Dewpoint Dewpoint Depression Visibility Wind Speed Wind Dir Waves Ship Positions

Hyundai Tacoma

Last reported at 2018-Jan-18 07:30 UTC. Time now 2018-Jan-18 07:55 UTC.
Position N 34°49' W 125°51'.

Length 293 m; draft 12.2 m.

Type: Cargo ship. MMSI: 538007259.

Date/timePositionNaut miles runAvg speedWind from/ knotsBaromVisibWave heightAir tempDewpointWater temp
2018-Jan-18 07:30N 34°49' W 125°51'  
2018-Jan-09 21:35N 41°38' E 141°43'213.0
2018-Jan-09 21:28N 41°38' E 141°41'1013.3
2018-Jan-09 20:43N 41°37' E 141°28'312.7
2018-Jan-09 20:30N 41°37' E 141°24'2 3.4
2018-Jan-09 20:00N 41°38' E 141°26'4 7.6
2018-Jan-09 19:30N 41°37' E 141°31'7 7.9
2018-Jan-09 18:35N 41°38' E 141°21'413.4
2018-Jan-09 18:18N 41°38' E 141°16'414.5
2018-Jan-09 18:01N 41°37' E 141°10'815.5
2018-Jan-09 17:30N 41°37' E 141°00'714.8
2018-Jan-09 17:01N 41°36' E 140°50'713.3
2018-Jan-09 16:30N 41°32' E 140°43'612.7
2018-Jan-09 16:00N 41°29' E 140°36'1 2.7
2018-Jan-09 15:30N 41°29' E 140°34'4 8.0
2018-Jan-09 15:00N 41°32' E 140°39'4 8.4
2018-Jan-09 14:30N 41°34' E 140°43'1 1.8
2018-Jan-09 14:00N 41°34' E 140°44'510.4
2018-Jan-09 13:30N 41°31' E 140°38'611.1
2018-Jan-09 13:00N 41°28' E 140°32'611.4
2018-Jan-09 12:30N 41°24' E 140°26'715.2
2018-Jan-09 12:00N 41°20' E 140°18'1120.5
2018-Jan-09 11:27N 41°13' E 140°05'  
Track history (hours):
 
Tides and Currents Weather Stations Pressure Air Temp Water Temp Dewpoint Dewpoint Depression Visibility Wind Speed Wind Dir Waves Ship Positions

Hyundai Tacoma

Last reported at 2018-Jan-18 07:30 UTC. Time now 2018-Jan-18 07:55 UTC.
Position N 34°49' W 125°51'.

Length 293 m; draft 12.2 m.

Type: Cargo ship. MMSI: 538007259.

Date/timePositionNaut miles runAvg speedWind from/ knotsBaromVisibWave heightAir tempDewpointWater temp
2018-Jan-18 07:30N 34°49' W 125°51'  
2018-Jan-09 21:35N 41°38' E 141°43'213.0
2018-Jan-09 21:28N 41°38' E 141°41'1013.3
2018-Jan-09 20:43N 41°37' E 141°28'312.7
2018-Jan-09 20:30N 41°37' E 141°24'2 3.4
2018-Jan-09 20:00N 41°38' E 141°26'4 7.6
2018-Jan-09 19:30N 41°37' E 141°31'7 7.9
2018-Jan-09 18:35N 41°38' E 141°21'413.4
2018-Jan-09 18:18N 41°38' E 141°16'414.5
2018-Jan-09 18:01N 41°37' E 141°10'815.5
2018-Jan-09 17:30N 41°37' E 141°00'714.8
2018-Jan-09 17:01N 41°36' E 140°50'713.3
2018-Jan-09 16:30N 41°32' E 140°43'612.7
2018-Jan-09 16:00N 41°29' E 140°36'1 2.7
2018-Jan-09 15:30N 41°29' E 140°34'4 8.0
2018-Jan-09 15:00N 41°32' E 140°39'4 8.4
2018-Jan-09 14:30N 41°34' E 140°43'1 1.8
2018-Jan-09 14:00N 41°34' E 140°44'510.4
2018-Jan-09 13:30N 41°31' E 140°38'611.1
2018-Jan-09 13:00N 41°28' E 140°32'611.4
2018-Jan-09 12:30N 41°24' E 140°26'715.2
2018-Jan-09 12:00N 41°20' E 140°18'1120.5
2018-Jan-09 11:27N 41°13' E 140°05'  

Dump ship's entire track history